createdAt,value
2023-02-08T00:00:44.410Z,-2.05
2023-02-08T00:03:11.503Z,-2.44
2023-02-08T00:05:38.730Z,-2.43
2023-02-08T00:08:05.780Z,-1.97
2023-02-08T00:10:32.638Z,-1.96
2023-02-08T00:12:59.545Z,-2.89
2023-02-08T00:15:26.515Z,-1.75
2023-02-08T00:17:53.385Z,-2.58
2023-02-08T00:20:20.172Z,-1.63
2023-02-08T00:22:47.592Z,-1.91
2023-02-08T00:25:14.667Z,-3.42
2023-02-08T00:27:41.665Z,-2.79
2023-02-08T00:30:09.536Z,-3.43
2023-02-08T00:32:36.488Z,-2.80
2023-02-08T00:35:03.214Z,-2.44
2023-02-08T00:37:31.531Z,-3.94
2023-02-08T00:40:00.093Z,-3.26
2023-02-08T00:42:27.806Z,-3.76
2023-02-08T00:44:54.466Z,-4.25
2023-02-08T00:47:21.194Z,-3.12
2023-02-08T00:49:47.905Z,-3.91
2023-02-08T00:52:14.924Z,-4.59
2023-02-08T00:54:43.017Z,-3.94
2023-02-08T00:57:10.365Z,-3.49
2023-02-08T00:59:37.543Z,-4.06
2023-02-08T01:02:04.980Z,-3.18
2023-02-08T01:04:32.144Z,-4.10
2023-02-08T01:06:58.876Z,-3.52
2023-02-08T01:09:25.708Z,-4.65
2023-02-08T01:11:52.751Z,-3.13
2023-02-08T01:14:19.594Z,-4.20
2023-02-08T01:16:46.446Z,-4.22
2023-02-08T01:19:13.841Z,-3.98
2023-02-08T01:21:42.411Z,-3.49
2023-02-08T01:24:09.628Z,-3.02
2023-02-08T01:26:36.878Z,-3.48
2023-02-08T01:29:06.196Z,-3.46
2023-02-08T01:31:37.757Z,-2.80
2023-02-08T01:34:05.912Z,-2.24
2023-02-08T01:36:33.522Z,-2.71
2023-02-08T01:39:01.411Z,-2.68
2023-02-08T01:41:35.045Z,-2.50
2023-02-08T01:44:19.444Z,-2.78
2023-02-08T01:46:48.784Z,-4.45
2023-02-08T01:49:18.375Z,-2.86
2023-02-08T01:52:30.226Z,-2.69
2023-02-08T01:55:02.952Z,-3.29
2023-02-08T01:57:30.779Z,-3.34
2023-02-08T02:00:08.500Z,-5.38
2023-02-08T02:02:42.766Z,-2.78
2023-02-08T02:05:11.887Z,-2.35
2023-02-08T02:07:39.582Z,-4.14
2023-02-08T02:10:14.799Z,-3.68
2023-02-08T02:12:42.940Z,-2.39
2023-02-08T02:15:10.581Z,-2.59
2023-02-08T02:17:39.144Z,-5.62
2023-02-08T02:20:05.772Z,-4.65
2023-02-08T02:22:32.549Z,-4.64
2023-02-08T02:25:44.564Z,-4.33
2023-02-08T02:28:26.604Z,-6.13
2023-02-08T02:31:28.018Z,-6.87
2023-02-08T02:34:05.375Z,-4.37
2023-02-08T02:36:50.441Z,-5.10
2023-02-08T02:39:49.494Z,-3.01
2023-02-08T02:42:59.810Z,-4.85
2023-02-08T02:45:35.741Z,-3.51
2023-02-08T02:48:15.908Z,-2.67
2023-02-08T02:50:48.308Z,-2.25
2023-02-08T02:53:50.343Z,-2.71
2023-02-08T02:56:24.821Z,-2.32
2023-02-08T02:58:56.196Z,-5.37
2023-02-08T03:01:30.048Z,-5.64
2023-02-08T03:03:57.281Z,-3.69
2023-02-08T03:06:36.783Z,-5.00
2023-02-08T03:09:18.664Z,-3.58
2023-02-08T03:11:58.245Z,-3.66
2023-02-08T03:14:32.917Z,-3.20
2023-02-08T03:17:23.919Z,-0.76
2023-02-08T03:20:02.301Z,-1.56
2023-02-08T03:22:58.451Z,-3.69
2023-02-08T03:25:38.049Z,-0.94
2023-02-08T03:28:11.701Z,-2.91
2023-02-08T03:30:54.302Z,-1.54
2023-02-08T03:33:39.420Z,-3.76
2023-02-08T03:36:16.242Z,-1.59
2023-02-08T03:38:45.870Z,-1.86
2023-02-08T03:41:19.583Z,-2.35
2023-02-08T03:43:53.980Z,-2.98
2023-02-08T03:46:43.819Z,-3.14
2023-02-08T03:49:24.384Z,-3.81
2023-02-08T03:51:53.904Z,-2.95
2023-02-08T03:54:25.624Z,-2.85
2023-02-08T03:57:09.121Z,-3.78
2023-02-08T03:59:40.996Z,-2.46
2023-02-08T04:02:12.788Z,-3.04
2023-02-08T04:04:44.404Z,-4.75
2023-02-08T04:07:11.295Z,-4.82
2023-02-08T04:09:38.922Z,-5.40
2023-02-08T04:12:06.365Z,-4.92
2023-02-08T04:14:33.160Z,-4.06
2023-02-08T04:17:00.141Z,-4.47
2023-02-08T04:19:27.116Z,-4.24
2023-02-08T04:21:54.301Z,-3.54
2023-02-08T04:24:21.625Z,-3.73
2023-02-08T04:26:48.410Z,-6.55
2023-02-08T04:29:15.686Z,-4.85
2023-02-08T04:31:42.428Z,-6.77
2023-02-08T04:34:09.447Z,-4.00
2023-02-08T04:36:36.508Z,-4.59
2023-02-08T04:39:03.743Z,-4.98
2023-02-08T04:41:30.688Z,-6.15
2023-02-08T04:43:57.484Z,-4.81
2023-02-08T04:46:24.987Z,-3.01
2023-02-08T04:48:51.664Z,-4.10
2023-02-08T04:51:18.438Z,-4.24
2023-02-08T04:53:45.447Z,-2.44
2023-02-08T04:56:12.511Z,-4.55
2023-02-08T04:58:39.669Z,-5.24
2023-02-08T05:01:08.688Z,-5.61
2023-02-08T05:03:35.765Z,-4.77
2023-02-08T05:06:02.637Z,-4.95
2023-02-08T05:08:29.523Z,-6.03
2023-02-08T05:10:56.263Z,-4.66
2023-02-08T05:13:23.531Z,-2.91
2023-02-08T05:15:50.624Z,-4.02
2023-02-08T05:18:17.581Z,-4.01
2023-02-08T05:20:45.105Z,-4.17
2023-02-08T05:23:11.858Z,-5.70
2023-02-08T05:25:40.028Z,-5.41
2023-02-08T05:28:06.995Z,-2.97
2023-02-08T05:30:33.757Z,-3.07
2023-02-08T05:33:00.892Z,-3.39
2023-02-08T05:35:28.040Z,-3.86
2023-02-08T05:37:55.367Z,-3.70
2023-02-08T05:40:22.103Z,-4.35
2023-02-08T05:42:48.837Z,-5.90
2023-02-08T05:45:15.891Z,-6.03
2023-02-08T05:47:42.904Z,-4.31
2023-02-08T05:50:10.372Z,-3.76
2023-02-08T05:52:37.232Z,-5.02
2023-02-08T05:55:04.124Z,-5.79
2023-02-08T05:57:32.285Z,-4.64
2023-02-08T05:59:59.986Z,-7.36
2023-02-08T06:02:26.763Z,-5.78
2023-02-08T06:04:53.450Z,-6.13
2023-02-08T06:07:21.089Z,-4.64
2023-02-08T06:09:48.660Z,-3.27
2023-02-08T06:12:16.125Z,-4.21
2023-02-08T06:14:43.322Z,-4.55
2023-02-08T06:17:10.367Z,-5.83
2023-02-08T06:19:37.354Z,-5.01
2023-02-08T06:22:04.082Z,-4.76
2023-02-08T06:24:30.856Z,-4.44
2023-02-08T06:26:57.603Z,-6.35
2023-02-08T06:29:24.348Z,-4.11
2023-02-08T06:31:51.301Z,-4.58
2023-02-08T06:34:18.318Z,-4.31
2023-02-08T06:36:45.796Z,-5.28
2023-02-08T06:39:12.669Z,-5.95
2023-02-08T06:41:39.522Z,-6.44
2023-02-08T06:44:06.379Z,-4.47
2023-02-08T06:46:33.478Z,-5.23
2023-02-08T06:49:00.463Z,-5.76
2023-02-08T06:51:27.706Z,-5.01
2023-02-08T06:53:54.664Z,-4.66
2023-02-08T06:56:21.624Z,-5.39
2023-02-08T06:58:48.501Z,-4.90
2023-02-08T07:01:15.798Z,-6.83
2023-02-08T07:03:42.664Z,-5.20
2023-02-08T07:06:17.210Z,-5.09
2023-02-08T07:08:44.575Z,-5.19
2023-02-08T07:11:14.611Z,-3.29
2023-02-08T07:13:41.713Z,-3.63
2023-02-08T07:16:10.226Z,-4.77
2023-02-08T07:18:38.041Z,-3.67
2023-02-08T07:21:04.968Z,-4.06
2023-02-08T07:23:32.084Z,-4.77
2023-02-08T07:26:08.320Z,-2.21
2023-02-08T07:28:36.104Z,-4.58
2023-02-08T07:31:11.213Z,-4.34
2023-02-08T07:33:38.475Z,-4.84
2023-02-08T07:36:06.156Z,-5.53
2023-02-08T07:38:33.869Z,-5.66
2023-02-08T07:41:05.924Z,-5.12
2023-02-08T07:43:35.071Z,-3.66
2023-02-08T07:46:17.724Z,-5.43
2023-02-08T07:48:44.600Z,-5.47
2023-02-08T07:51:13.002Z,-2.55
2023-02-08T07:53:40.451Z,0.29
2023-02-08T07:56:07.482Z,-3.68
2023-02-08T07:58:34.194Z,-2.52
2023-02-08T08:01:09.480Z,0.76
2023-02-08T08:03:39.218Z,-0.81
2023-02-08T08:06:06.334Z,-0.93
2023-02-08T08:08:33.175Z,-0.89
2023-02-08T08:11:01.260Z,-3.01
2023-02-08T08:13:29.573Z,-2.69
2023-02-08T08:15:57.037Z,-3.08
2023-02-08T08:18:23.867Z,-0.75
2023-02-08T08:20:51.119Z,0.57
2023-02-08T08:23:19.602Z,-3.14
2023-02-08T08:25:46.409Z,-1.79
2023-02-08T08:28:13.357Z,-0.34
2023-02-08T08:30:43.870Z,0.60
2023-02-08T08:33:11.910Z,-0.35
2023-02-08T08:35:38.862Z,1.97
2023-02-08T08:38:05.675Z,1.26
2023-02-08T08:40:32.818Z,0.93
2023-02-08T08:42:59.704Z,-2.00
2023-02-08T08:45:26.998Z,-0.04
2023-02-08T08:47:53.877Z,0.82
2023-02-08T08:50:20.665Z,1.58
2023-02-08T08:52:47.722Z,0.50
2023-02-08T08:55:14.483Z,5.02
2023-02-08T08:57:41.276Z,6.93
2023-02-08T09:00:09.186Z,1.88
2023-02-08T09:02:36.075Z,3.88
2023-02-08T09:05:05.453Z,6.63
2023-02-08T09:07:33.493Z,6.24
2023-02-08T09:10:00.223Z,8.40
2023-02-08T09:12:27.576Z,6.16
2023-02-08T09:14:54.361Z,2.42
2023-02-08T09:17:21.159Z,-0.31
2023-02-08T09:19:48.061Z,4.90
2023-02-08T09:22:15.162Z,6.08
2023-02-08T09:24:42.333Z,9.01
2023-02-08T09:27:09.193Z,5.14
2023-02-08T09:29:35.935Z,1.94
2023-02-08T09:32:02.716Z,4.49
2023-02-08T09:34:30.216Z,2.66
2023-02-08T09:36:57.354Z,3.49
2023-02-08T09:39:25.970Z,3.02
2023-02-08T09:42:18.850Z,4.58
2023-02-08T09:44:48.902Z,5.98
2023-02-08T09:47:23.580Z,7.35
2023-02-08T09:50:12.488Z,-0.76
2023-02-08T09:52:50.590Z,2.61
2023-02-08T09:55:33.698Z,3.77
2023-02-08T09:58:05.213Z,5.08
2023-02-08T10:00:39.267Z,3.09
2023-02-08T10:03:19.230Z,0.65
2023-02-08T10:05:46.207Z,-0.03
2023-02-08T10:08:13.063Z,5.73
2023-02-08T10:11:03.000Z,0.55
2023-02-08T10:13:49.204Z,1.14
2023-02-08T10:16:44.139Z,-0.55
2023-02-08T10:19:25.782Z,0.77
2023-02-08T10:22:10.292Z,3.84
2023-02-08T10:25:09.648Z,4.29
2023-02-08T10:27:37.577Z,2.93
2023-02-08T10:30:20.530Z,1.86
2023-02-08T10:32:59.589Z,0.04
2023-02-08T10:35:37.177Z,1.28
2023-02-08T10:38:44.144Z,0.51
2023-02-08T10:41:20.770Z,-0.08
2023-02-08T10:44:05.228Z,3.06
2023-02-08T10:46:44.444Z,4.56
2023-02-08T10:49:43.119Z,5.84
2023-02-08T10:52:10.313Z,3.53
2023-02-08T10:54:37.098Z,6.08
2023-02-08T10:57:15.907Z,2.43
2023-02-08T10:59:56.287Z,1.03
2023-02-08T11:02:33.036Z,3.02
2023-02-08T11:05:04.840Z,3.69
2023-02-08T11:07:34.701Z,0.22
2023-02-08T11:10:21.189Z,3.43
2023-02-08T11:13:14.396Z,2.89
2023-02-08T11:15:51.993Z,3.83
2023-02-08T11:18:27.076Z,5.59
2023-02-08T11:21:04.831Z,3.26
2023-02-08T11:23:34.814Z,6.10
2023-02-08T11:26:22.721Z,4.00
2023-02-08T11:29:06.099Z,3.87
2023-02-08T11:31:35.267Z,6.21
2023-02-08T11:34:11.408Z,4.90
2023-02-08T11:36:46.947Z,4.22
2023-02-08T11:39:23.204Z,2.18
2023-02-08T11:41:54.306Z,5.91
2023-02-08T11:44:37.271Z,6.40
2023-02-08T11:47:08.321Z,4.30
2023-02-08T11:49:43.995Z,5.26
2023-02-08T11:52:26.504Z,5.16
2023-02-08T11:54:55.525Z,5.10
2023-02-08T11:57:29.914Z,3.88
2023-02-08T12:00:26.636Z,2.69
2023-02-08T12:03:06.379Z,4.11
2023-02-08T12:05:56.208Z,5.16
2023-02-08T12:08:29.015Z,4.97
2023-02-08T12:11:01.985Z,4.85
2023-02-08T12:13:58.079Z,5.04
2023-02-08T12:17:07.614Z,1.54
2023-02-08T12:19:50.204Z,2.37
2023-02-08T12:22:23.784Z,2.64
2023-02-08T12:25:04.832Z,0.41
2023-02-08T12:28:14.295Z,2.15
2023-02-08T12:31:03.398Z,3.14
2023-02-08T12:33:53.681Z,1.41
2023-02-08T12:36:31.756Z,4.40
2023-02-08T12:39:20.242Z,1.54
2023-02-08T12:41:56.389Z,0.80
2023-02-08T12:44:26.174Z,4.61
2023-02-08T12:47:03.653Z,3.61
2023-02-08T12:49:30.641Z,1.43
2023-02-08T12:52:03.466Z,2.87
2023-02-08T12:54:42.310Z,2.62
2023-02-08T12:57:15.064Z,4.20
2023-02-08T12:59:49.880Z,4.04
2023-02-08T13:02:23.300Z,3.69
2023-02-08T13:04:54.167Z,3.86
2023-02-08T13:07:32.333Z,2.39
2023-02-08T13:10:08.334Z,2.49
2023-02-08T13:12:42.409Z,2.03
2023-02-08T13:15:30.249Z,2.88
2023-02-08T13:18:01.422Z,2.10
2023-02-08T13:20:50.300Z,0.66
2023-02-08T13:23:26.072Z,0.74
2023-02-08T13:25:58.931Z,3.80
2023-02-08T13:28:27.196Z,1.58
2023-02-08T13:31:02.632Z,0.29
2023-02-08T13:34:01.162Z,0.60
2023-02-08T13:36:35.004Z,3.41
2023-02-08T13:39:05.608Z,0.74
2023-02-08T13:41:35.856Z,4.04
2023-02-08T13:44:09.531Z,2.98
2023-02-08T13:46:44.611Z,2.23
2023-02-08T13:49:39.088Z,-0.20
2023-02-08T13:52:08.567Z,-0.60
2023-02-08T13:54:36.193Z,3.51
2023-02-08T13:57:02.896Z,3.95
2023-02-08T13:59:34.162Z,3.14
2023-02-08T14:02:26.906Z,3.13
2023-02-08T14:05:15.233Z,2.19
2023-02-08T14:07:47.722Z,5.04
2023-02-08T14:10:26.860Z,3.88
2023-02-08T14:13:00.538Z,2.81
2023-02-08T14:15:33.595Z,3.22
2023-02-08T14:18:02.023Z,2.58
2023-02-08T14:20:40.850Z,4.46
2023-02-08T14:23:26.855Z,4.64
2023-02-08T14:25:56.951Z,1.16
2023-02-08T14:28:31.513Z,1.94
2023-02-08T14:31:01.170Z,3.13
2023-02-08T14:33:33.249Z,0.57
2023-02-08T14:36:03.968Z,0.66
2023-02-08T14:38:33.778Z,1.23
2023-02-08T14:41:02.902Z,2.52
2023-02-08T14:43:33.933Z,3.57
2023-02-08T14:46:40.242Z,0.95
2023-02-08T14:49:18.631Z,3.13
2023-02-08T14:51:51.912Z,1.14
2023-02-08T14:54:27.413Z,0.15
2023-02-08T14:57:00.650Z,0.83
2023-02-08T14:59:31.500Z,-0.07
2023-02-08T15:02:02.802Z,-0.22
2023-02-08T15:04:31.013Z,1.52
2023-02-08T15:07:28.645Z,3.83
2023-02-08T15:09:56.229Z,3.69
2023-02-08T15:12:29.670Z,3.52
2023-02-08T15:15:00.718Z,1.14
2023-02-08T15:17:41.309Z,-0.23
2023-02-08T15:20:22.267Z,3.21
2023-02-08T15:22:49.057Z,1.00
2023-02-08T15:25:31.997Z,1.60
2023-02-08T15:28:23.268Z,1.27
2023-02-08T15:31:05.331Z,2.56
2023-02-08T15:33:32.974Z,3.50
2023-02-08T15:36:06.624Z,2.14
2023-02-08T15:38:38.537Z,1.56
2023-02-08T15:41:09.680Z,1.56
2023-02-08T15:43:39.335Z,1.37
2023-02-08T15:46:27.653Z,-0.04
2023-02-08T15:48:57.700Z,0.48
2023-02-08T15:51:27.794Z,-0.44
2023-02-08T15:53:57.008Z,0.70
2023-02-08T15:56:37.168Z,2.11
2023-02-08T15:59:08.574Z,1.99
2023-02-08T16:01:35.746Z,0.64
2023-02-08T16:04:12.577Z,1.26
2023-02-08T16:06:46.740Z,0.78
2023-02-08T16:09:18.708Z,0.89
2023-02-08T16:11:50.250Z,1.17
2023-02-08T16:14:25.293Z,1.77
2023-02-08T16:16:57.416Z,-0.47
2023-02-08T16:19:32.957Z,1.30
2023-02-08T16:22:28.405Z,-1.30
2023-02-08T16:25:30.517Z,1.07
2023-02-08T16:27:57.315Z,0.45
2023-02-08T16:30:24.484Z,-0.83
2023-02-08T16:32:51.587Z,-0.27
2023-02-08T16:35:29.615Z,0.28
2023-02-08T16:38:00.726Z,-0.35
2023-02-08T16:40:51.710Z,0.86
2023-02-08T16:43:33.518Z,1.14
2023-02-08T16:46:15.759Z,1.05
2023-02-08T16:48:58.044Z,2.07
2023-02-08T16:51:31.792Z,0.21
2023-02-08T16:54:07.630Z,1.01
2023-02-08T16:56:35.905Z,1.77
2023-02-08T16:59:02.725Z,1.38
2023-02-08T17:01:29.538Z,2.83
2023-02-08T17:03:56.467Z,1.57
2023-02-08T17:06:31.907Z,0.73
2023-02-08T17:09:00.827Z,2.71
2023-02-08T17:11:29.221Z,1.23
2023-02-08T17:13:57.471Z,2.84
2023-02-08T17:16:28.159Z,0.16
2023-02-08T17:18:56.197Z,3.27
2023-02-08T17:21:23.505Z,1.72
2023-02-08T17:23:50.245Z,1.45
2023-02-08T17:26:34.133Z,-0.77
2023-02-08T17:29:01.109Z,1.95
2023-02-08T17:31:32.074Z,2.14
2023-02-08T17:34:04.419Z,0.60
2023-02-08T17:36:37.070Z,1.23
2023-02-08T17:39:05.779Z,3.02
2023-02-08T17:41:32.483Z,1.27
2023-02-08T17:43:59.439Z,2.33
2023-02-08T17:46:28.391Z,1.94
2023-02-08T17:48:55.208Z,-0.06
2023-02-08T17:51:24.128Z,0.22
2023-02-08T17:53:51.685Z,-0.41
2023-02-08T17:56:21.640Z,0.89
2023-02-08T17:58:52.930Z,1.43
2023-02-08T18:01:23.805Z,0.10
2023-02-08T18:03:51.737Z,-1.55
2023-02-08T18:06:19.873Z,-1.66
2023-02-08T18:08:47.372Z,0.57
2023-02-08T18:11:18.068Z,0.83
2023-02-08T18:13:46.422Z,0.25
2023-02-08T18:16:27.158Z,2.46
2023-02-08T18:18:59.499Z,0.79
2023-02-08T18:21:26.245Z,1.85
2023-02-08T18:23:55.401Z,0.45
2023-02-08T18:26:24.967Z,0.20
2023-02-08T18:28:52.822Z,1.10
2023-02-08T18:31:21.221Z,1.18
2023-02-08T18:33:49.782Z,-0.27
2023-02-08T18:36:18.060Z,1.69
2023-02-08T18:38:47.266Z,-0.64
2023-02-08T18:41:18.731Z,1.80
2023-02-08T18:43:45.494Z,1.79
2023-02-08T18:46:15.163Z,1.26
2023-02-08T18:48:42.585Z,0.93
2023-02-08T18:51:12.767Z,0.06
2023-02-08T18:53:41.516Z,1.28
2023-02-08T18:56:11.726Z,1.09
2023-02-08T18:58:39.484Z,2.60
2023-02-08T19:01:13.237Z,2.20
2023-02-08T19:03:41.292Z,0.93
2023-02-08T19:06:11.114Z,0.53
2023-02-08T19:08:40.485Z,1.24
2023-02-08T19:11:20.013Z,1.26
2023-02-08T19:13:48.164Z,0.77
2023-02-08T19:16:17.484Z,1.63
2023-02-08T19:18:45.831Z,0.03
2023-02-08T19:21:14.452Z,1.54
2023-02-08T19:23:41.428Z,1.52
2023-02-08T19:26:23.105Z,2.43
2023-02-08T19:28:51.042Z,0.26
2023-02-08T19:31:21.156Z,1.02
2023-02-08T19:33:50.616Z,0.77
2023-02-08T19:36:20.700Z,1.73
2023-02-08T19:38:48.926Z,-0.12
2023-02-08T19:41:19.083Z,-0.09
2023-02-08T19:43:47.389Z,-0.52
2023-02-08T19:46:17.497Z,0.28
2023-02-08T19:48:44.736Z,1.41
2023-02-08T19:51:12.254Z,1.83
2023-02-08T19:53:39.069Z,1.76
2023-02-08T19:56:08.834Z,1.39
2023-02-08T19:58:36.935Z,0.90
2023-02-08T20:01:16.829Z,0.12
2023-02-08T20:03:44.918Z,0.17
2023-02-08T20:06:27.060Z,0.45
2023-02-08T20:08:54.470Z,-0.70
2023-02-08T20:11:27.607Z,-0.65
2023-02-08T20:13:56.905Z,-0.25
2023-02-08T20:16:23.895Z,-1.13
2023-02-08T20:18:51.027Z,-0.76
2023-02-08T20:21:19.003Z,-1.81
2023-02-08T20:23:47.109Z,-0.16
2023-02-08T20:26:20.844Z,0.12
2023-02-08T20:28:51.494Z,0.37
2023-02-08T20:31:22.054Z,0.02
2023-02-08T20:33:50.810Z,-0.42
2023-02-08T20:36:23.711Z,-0.25
2023-02-08T20:38:53.023Z,-0.68
2023-02-08T20:41:21.168Z,0.18
2023-02-08T20:43:48.209Z,-0.83
2023-02-08T20:46:27.110Z,-1.00
2023-02-08T20:48:58.301Z,-0.69
2023-02-08T20:51:26.088Z,-1.35
2023-02-08T20:53:53.953Z,-0.69
2023-02-08T20:56:24.343Z,-1.33
2023-02-08T20:58:51.706Z,-0.88
2023-02-08T21:01:21.523Z,-0.00
2023-02-08T21:03:49.364Z,-1.86
2023-02-08T21:06:19.333Z,-0.75
2023-02-08T21:08:52.080Z,-0.66
2023-02-08T21:11:20.850Z,-0.13
2023-02-08T21:13:48.314Z,0.31
2023-02-08T21:16:16.269Z,-1.32
2023-02-08T21:18:43.398Z,-1.40
2023-02-08T21:21:10.916Z,-0.04
2023-02-08T21:23:38.417Z,0.27
2023-02-08T21:26:07.236Z,0.21
2023-02-08T21:28:34.765Z,-0.39
2023-02-08T21:31:05.024Z,0.88
2023-02-08T21:33:32.178Z,0.66
2023-02-08T21:36:08.692Z,-0.07
2023-02-08T21:38:35.510Z,-0.65
2023-02-08T21:41:21.376Z,-0.13
2023-02-08T21:43:49.682Z,-1.10
2023-02-08T21:46:17.693Z,0.17
2023-02-08T21:49:04.567Z,0.18
2023-02-08T21:51:50.889Z,0.55
2023-02-08T21:54:41.702Z,-1.21
2023-02-08T21:57:10.125Z,-1.64
2023-02-08T21:59:38.064Z,-0.88
2023-02-08T22:02:14.208Z,-0.10
2023-02-08T22:04:59.821Z,0.53
2023-02-08T22:07:28.103Z,-0.16
2023-02-08T22:09:54.979Z,-0.26
2023-02-08T22:12:22.793Z,-0.14
2023-02-08T22:14:51.012Z,0.29
2023-02-08T22:17:18.066Z,-0.37
2023-02-08T22:19:44.923Z,-0.67
2023-02-08T22:22:11.963Z,-0.65
2023-02-08T22:24:38.745Z,-0.29
2023-02-08T22:27:05.692Z,-0.57
2023-02-08T22:29:32.791Z,-0.47
2023-02-08T22:31:59.767Z,-0.41
2023-02-08T22:34:27.631Z,-1.42
2023-02-08T22:36:54.682Z,-3.02
2023-02-08T22:39:21.685Z,-2.30
2023-02-08T22:41:49.173Z,-1.09
2023-02-08T22:44:16.019Z,-1.86
2023-02-08T22:46:42.909Z,-2.82
2023-02-08T22:49:09.766Z,-2.94
2023-02-08T22:51:37.172Z,-3.10
2023-02-08T22:54:04.358Z,-0.91
2023-02-08T22:56:31.181Z,-1.04
2023-02-08T22:59:00.210Z,-4.37
2023-02-08T23:01:27.938Z,-4.88
2023-02-08T23:03:54.757Z,-4.47
2023-02-08T23:06:22.030Z,-3.71
2023-02-08T23:08:49.045Z,-2.09
2023-02-08T23:11:16.292Z,-1.82
2023-02-08T23:13:43.342Z,-3.01
2023-02-08T23:16:15.718Z,-1.84
2023-02-08T23:18:43.734Z,-1.22
2023-02-08T23:21:14.443Z,-2.58
2023-02-08T23:23:41.530Z,-1.12
2023-02-08T23:26:11.717Z,-2.39
2023-02-08T23:28:38.667Z,-0.85
2023-02-08T23:31:06.985Z,-2.62
2023-02-08T23:33:35.735Z,-1.78
2023-02-08T23:36:07.863Z,-2.60
2023-02-08T23:38:34.961Z,-3.90
2023-02-08T23:41:10.953Z,-1.21
2023-02-08T23:43:38.234Z,-2.40
2023-02-08T23:46:10.758Z,-3.11
2023-02-08T23:48:39.383Z,-3.57
2023-02-08T23:51:07.127Z,-2.87
2023-02-08T23:53:35.262Z,-2.00
2023-02-08T23:56:24.096Z,-2.73
2023-02-08T23:58:54.218Z,-1.99
